sensor_id;sensor_type;location;lat;lon;timestamp;pressure;altitude;pressure_sealevel;temperature;humidity
65013;BME280;51715;39.432;-77.518;2022-07-06T00:00:31;99160.05;;;32.08;45.89
65013;BME280;51715;39.432;-77.518;2022-07-06T00:03:01;99161.47;;;32.06;45.88
65013;BME280;51715;39.432;-77.518;2022-07-06T00:05:29;99157.47;;;32.06;45.57
65013;BME280;51715;39.432;-77.518;2022-07-06T00:07:58;99159.65;;;31.73;46.28
65013;BME280;51715;39.432;-77.518;2022-07-06T00:10:26;99159.46;;;32.08;46.37
65013;BME280;51715;39.432;-77.518;2022-07-06T00:12:54;99156.33;;;31.84;46.22
65013;BME280;51715;39.432;-77.518;2022-07-06T00:15:22;99150.83;;;32.03;46.35
65013;BME280;51715;39.432;-77.518;2022-07-06T00:17:50;99152.34;;;32.14;46.47
65013;BME280;51715;39.432;-77.518;2022-07-06T00:20:18;99147.85;;;31.89;46.43
65013;BME280;51715;39.432;-77.518;2022-07-06T00:22:46;99150.89;;;31.90;46.80
65013;BME280;51715;39.432;-77.518;2022-07-06T00:25:14;99152.84;;;31.63;46.78
65013;BME280;51715;39.432;-77.518;2022-07-06T00:27:43;99154.18;;;31.72;46.45
65013;BME280;51715;39.432;-77.518;2022-07-06T00:30:11;99154.98;;;31.79;46.62
65013;BME280;51715;39.432;-77.518;2022-07-06T00:32:41;99154.06;;;31.57;46.65
65013;BME280;51715;39.432;-77.518;2022-07-06T00:35:10;99146.67;;;31.08;47.23
65013;BME280;51715;39.432;-77.518;2022-07-06T00:37:38;99144.26;;;31.46;47.04
65013;BME280;51715;39.432;-77.518;2022-07-06T00:40:09;99142.56;;;31.14;47.64
65013;BME280;51715;39.432;-77.518;2022-07-06T00:42:42;99142.74;;;31.59;47.66
65013;BME280;51715;39.432;-77.518;2022-07-06T00:45:11;99143.32;;;31.18;47.46
65013;BME280;51715;39.432;-77.518;2022-07-06T00:47:41;99145.09;;;31.41;47.07
65013;BME280;51715;39.432;-77.518;2022-07-06T00:50:13;99146.16;;;31.05;47.39
65013;BME280;51715;39.432;-77.518;2022-07-06T00:52:41;99148.33;;;30.80;47.68
65013;BME280;51715;39.432;-77.518;2022-07-06T00:55:11;99153.68;;;31.38;47.35
65013;BME280;51715;39.432;-77.518;2022-07-06T00:57:41;99154.61;;;30.79;47.54
65013;BME280;51715;39.432;-77.518;2022-07-06T01:00:12;99156.88;;;31.04;47.53
65013;BME280;51715;39.432;-77.518;2022-07-06T01:02:40;99162.24;;;31.24;47.20
65013;BME280;51715;39.432;-77.518;2022-07-06T01:05:11;99165.66;;;31.22;47.04
65013;BME280;51715;39.432;-77.518;2022-07-06T01:07:41;99165.59;;;30.98;47.10
65013;BME280;51715;39.432;-77.518;2022-07-06T01:10:13;99169.79;;;31.11;46.63
65013;BME280;51715;39.432;-77.518;2022-07-06T01:12:45;99170.24;;;31.17;46.80
65013;BME280;51715;39.432;-77.518;2022-07-06T01:15:16;99172.03;;;31.00;47.20
65013;BME280;51715;39.432;-77.518;2022-07-06T01:17:45;99173.36;;;31.06;46.80
65013;BME280;51715;39.432;-77.518;2022-07-06T01:20:15;99175.46;;;31.08;46.79
65013;BME280;51715;39.432;-77.518;2022-07-06T01:22:45;99171.53;;;31.08;46.70
65013;BME280;51715;39.432;-77.518;2022-07-06T01:25:14;99167.94;;;31.04;46.60
65013;BME280;51715;39.432;-77.518;2022-07-06T01:27:44;99171.77;;;31.05;46.51
65013;BME280;51715;39.432;-77.518;2022-07-06T01:30:28;99169.09;;;31.16;46.22
65013;BME280;51715;39.432;-77.518;2022-07-06T01:32:57;99166.87;;;31.07;46.31
65013;BME280;51715;39.432;-77.518;2022-07-06T01:35:25;99165.33;;;31.09;46.23
65013;BME280;51715;39.432;-77.518;2022-07-06T01:37:55;99165.69;;;30.95;46.85
65013;BME280;51715;39.432;-77.518;2022-07-06T01:40:23;99171.14;;;30.63;47.18
65013;BME280;51715;39.432;-77.518;2022-07-06T01:42:51;99171.89;;;30.50;47.49
65013;BME280;51715;39.432;-77.518;2022-07-06T01:45:20;99176.61;;;30.41;47.56
65013;BME280;51715;39.432;-77.518;2022-07-06T01:47:49;99175.97;;;30.28;47.27
65013;BME280;51715;39.432;-77.518;2022-07-06T01:50:17;99178.63;;;30.26;47.15
65013;BME280;51715;39.432;-77.518;2022-07-06T01:52:45;99182.34;;;30.41;47.02
65013;BME280;51715;39.432;-77.518;2022-07-06T01:55:14;99184.99;;;30.16;46.95
65013;BME280;51715;39.432;-77.518;2022-07-06T01:57:42;99181.60;;;30.31;47.03
65013;BME280;51715;39.432;-77.518;2022-07-06T02:00:10;99180.04;;;30.21;46.61
65013;BME280;51715;39.432;-77.518;2022-07-06T02:02:38;99177.34;;;30.06;47.13
65013;BME280;51715;39.432;-77.518;2022-07-06T02:05:08;99179.79;;;29.31;48.33
65013;BME280;51715;39.432;-77.518;2022-07-06T02:07:36;99176.99;;;29.81;47.75
65013;BME280;51715;39.432;-77.518;2022-07-06T02:10:05;99173.47;;;30.07;47.00
65013;BME280;51715;39.432;-77.518;2022-07-06T02:12:34;99169.11;;;29.62;47.61
65013;BME280;51715;39.432;-77.518;2022-07-06T02:15:02;99163.65;;;29.62;47.43
65013;BME280;51715;39.432;-77.518;2022-07-06T02:17:32;99165.59;;;29.43;47.76
65013;BME280;51715;39.432;-77.518;2022-07-06T02:20:00;99166.76;;;29.78;47.59
65013;BME280;51715;39.432;-77.518;2022-07-06T02:22:30;99166.60;;;28.87;48.67
65013;BME280;51715;39.432;-77.518;2022-07-06T02:24:58;99159.89;;;29.53;47.79
65013;BME280;51715;39.432;-77.518;2022-07-06T02:27:27;99158.15;;;29.84;47.23
65013;BME280;51715;39.432;-77.518;2022-07-06T02:29:55;99153.56;;;29.42;47.61
65013;BME280;51715;39.432;-77.518;2022-07-06T02:32:23;99153.13;;;29.49;47.16
65013;BME280;51715;39.432;-77.518;2022-07-06T02:34:52;99151.89;;;29.64;46.88
65013;BME280;51715;39.432;-77.518;2022-07-06T02:37:21;99157.30;;;29.72;46.72
65013;BME280;51715;39.432;-77.518;2022-07-06T02:39:49;99160.59;;;29.12;47.34
65013;BME280;51715;39.432;-77.518;2022-07-06T02:42:18;99165.62;;;28.84;47.77
65013;BME280;51715;39.432;-77.518;2022-07-06T02:44:47;99170.58;;;29.31;47.41
65013;BME280;51715;39.432;-77.518;2022-07-06T02:47:15;99172.31;;;29.35;46.81
65013;BME280;51715;39.432;-77.518;2022-07-06T02:49:43;99172.99;;;29.23;46.88
65013;BME280;51715;39.432;-77.518;2022-07-06T02:52:11;99171.40;;;28.84;47.31
65013;BME280;51715;39.432;-77.518;2022-07-06T02:54:40;99172.09;;;29.28;47.26
65013;BME280;51715;39.432;-77.518;2022-07-06T02:57:08;99174.07;;;29.17;47.08
65013;BME280;51715;39.432;-77.518;2022-07-06T02:59:37;99169.27;;;29.26;46.57
65013;BME280;51715;39.432;-77.518;2022-07-06T03:02:06;99168.13;;;29.35;46.36
65013;BME280;51715;39.432;-77.518;2022-07-06T03:04:35;99171.80;;;29.14;46.07
65013;BME280;51715;39.432;-77.518;2022-07-06T03:07:04;99182.01;;;29.12;46.23
65013;BME280;51715;39.432;-77.518;2022-07-06T03:09:33;99185.60;;;29.07;46.97
65013;BME280;51715;39.432;-77.518;2022-07-06T03:12:01;99181.01;;;28.69;47.57
65013;BME280;51715;39.432;-77.518;2022-07-06T03:14:30;99178.35;;;29.03;46.99
65013;BME280;51715;39.432;-77.518;2022-07-06T03:16:58;99179.60;;;28.96;47.02
65013;BME280;51715;39.432;-77.518;2022-07-06T03:19:27;99178.27;;;28.78;46.77
65013;BME280;51715;39.432;-77.518;2022-07-06T03:21:55;99172.38;;;28.96;46.44
65013;BME280;51715;39.432;-77.518;2022-07-06T03:24:23;99172.62;;;28.68;47.13
65013;BME280;51715;39.432;-77.518;2022-07-06T03:26:51;99181.35;;;28.33;47.24
65013;BME280;51715;39.432;-77.518;2022-07-06T03:29:20;99176.44;;;28.92;46.79
65013;BME280;51715;39.432;-77.518;2022-07-06T03:31:49;99178.35;;;28.84;46.45
65013;BME280;51715;39.432;-77.518;2022-07-06T03:34:17;99185.34;;;28.86;46.55
65013;BME280;51715;39.432;-77.518;2022-07-06T03:36:45;99193.28;;;28.72;46.63
65013;BME280;51715;39.432;-77.518;2022-07-06T03:39:13;99193.82;;;28.58;46.98
65013;BME280;51715;39.432;-77.518;2022-07-06T03:41:41;99192.54;;;28.44;46.79
65013;BME280;51715;39.432;-77.518;2022-07-06T03:44:10;99195.64;;;28.72;46.72
65013;BME280;51715;39.432;-77.518;2022-07-06T03:46:38;99199.19;;;28.60;46.79
65013;BME280;51715;39.432;-77.518;2022-07-06T03:49:06;99196.22;;;28.62;47.30
65013;BME280;51715;39.432;-77.518;2022-07-06T03:51:34;99191.81;;;28.18;47.42
65013;BME280;51715;39.432;-77.518;2022-07-06T03:54:02;99189.14;;;28.38;47.34
65013;BME280;51715;39.432;-77.518;2022-07-06T03:56:31;99192.81;;;28.59;47.34
65013;BME280;51715;39.432;-77.518;2022-07-06T03:59:01;99195.23;;;28.16;47.28
65013;BME280;51715;39.432;-77.518;2022-07-06T04:03:58;99201.40;;;27.80;45.87
65013;BME280;51715;39.432;-77.518;2022-07-06T04:06:26;99209.56;;;28.05;45.54
65013;BME280;51715;39.432;-77.518;2022-07-06T04:08:54;99216.09;;;28.51;45.21
65013;BME280;51715;39.432;-77.518;2022-07-06T04:11:22;99220.38;;;28.67;45.50
65013;BME280;51715;39.432;-77.518;2022-07-06T04:13:51;99217.30;;;28.28;46.92
65013;BME280;51715;39.432;-77.518;2022-07-06T04:16:20;99223.00;;;27.89;47.16
65013;BME280;51715;39.432;-77.518;2022-07-06T04:18:48;99227.75;;;28.03;47.23
65013;BME280;51715;39.432;-77.518;2022-07-06T04:21:15;99233.83;;;27.63;47.52
65013;BME280;51715;39.432;-77.518;2022-07-06T04:23:45;99233.89;;;28.12;47.33
65013;BME280;51715;39.432;-77.518;2022-07-06T04:26:12;99226.25;;;27.71;47.70
65013;BME280;51715;39.432;-77.518;2022-07-06T04:28:40;99220.59;;;27.64;48.11
65013;BME280;51715;39.432;-77.518;2022-07-06T04:31:09;99215.37;;;27.58;48.21
65013;BME280;51715;39.432;-77.518;2022-07-06T04:33:37;99220.83;;;27.43;47.82
